Time;durP1;ratioP1;P1;durP2;ratioP2;P2;SDS_P1;SDS_P2;PMS_P1;PMS_P2;Temp;Humidity;BMP_temperature;BMP_pressure;BME280_temperature;BME280_humidity;BME280_pressure;Samples;Min_cycle;Max_cycle;Signal;HPM_P1;HPM_P2
2021/06/29 00:01:49;;;;;;;22.10;17.47;;;;;;;17.52;63.30;98569.88;512756;1089;104180;-41
2021/06/29 00:11:55;;;;;;;18.90;15.37;;;;;;;17.46;63.58;98559.19;513078;1088;104659;-43
2021/06/29 00:22:04;;;;;;;32.33;17.37;;;;;;;17.37;63.78;98546.69;512702;1088;103125;-42
2021/06/29 00:32:12;;;;;;;23.97;16.87;;;;;;;17.26;64.10;98537.91;513120;1088;103124;-42
2021/06/29 00:42:19;;;;;;;28.00;19.43;;;;;;;17.02;64.29;98535.08;512886;1088;103116;-44
2021/06/29 00:52:28;;;;;;;22.97;18.33;;;;;;;16.71;64.72;98517.58;513049;1088;103096;-43
2021/06/29 01:02:37;;;;;;;24.47;16.53;;;;;;;16.65;65.10;98522.11;513257;1090;103179;-43
2021/06/29 01:12:44;;;;;;;19.60;16.38;;;;;;;16.70;65.31;98513.31;512942;1088;103118;-42
2021/06/29 01:22:55;;;;;;;23.95;17.33;;;;;;;16.45;65.39;98514.95;512977;1088;103450;-42
2021/06/29 01:33:03;;;;;;;20.73;17.03;;;;;;;16.53;66.28;98497.58;513947;1089;103126;-43
2021/06/29 01:43:12;;;;;;;23.10;17.60;;;;;;;16.43;66.15;98498.41;513355;1088;103124;-42
2021/06/29 01:53:21;;;;;;;23.87;17.70;;;;;;;16.18;66.40;98485.92;512821;1089;103116;-42
2021/06/29 02:03:28;;;;;;;22.27;18.47;;;;;;;15.96;66.57;98493.41;512898;1088;103158;-43
2021/06/29 02:13:36;;;;;;;22.13;17.33;;;;;;;15.94;66.79;98485.68;512883;1090;103502;-43
2021/06/29 02:23:45;;;;;;;18.23;16.13;;;;;;;15.93;67.44;98485.95;512781;1089;103386;-43
2021/06/29 02:33:52;;;;;;;21.50;15.00;;;;;;;15.87;67.36;98490.49;512935;1088;103143;-42
2021/06/29 02:44:00;;;;;;;23.60;16.10;;;;;;;15.90;67.79;98495.28;513038;1089;103150;-44
2021/06/29 02:54:05;;;;;;;19.83;14.50;;;;;;;15.85;67.61;98502.46;512959;1089;103499;-43
2021/06/29 03:04:13;;;;;;;18.00;12.83;;;;;;;15.90;67.61;98505.16;512950;1088;103557;-43
2021/06/29 03:14:20;;;;;;;20.60;17.73;;;;;;;16.96;67.49;98490.78;512863;1089;103119;-44
2021/06/29 03:24:29;;;;;;;24.00;18.03;;;;;;;19.79;66.12;98495.48;512877;1089;103052;-43
2021/06/29 03:34:37;;;;;;;22.73;18.90;;;;;;;21.96;63.86;98481.41;512960;1089;103538;-43
2021/06/29 03:44:43;;;;;;;;;;;;;;;23.35;61.44;98487.33;512938;1088;103141;-44
2021/06/29 03:54:53;;;;;;;20.55;15.50;;;;;;;24.47;60.06;98501.52;513008;1088;103134;-42
2021/06/29 04:05:00;;;;;;;18.63;15.28;;;;;;;25.47;58.22;98488.39;512922;1089;103181;-42
2021/06/29 04:15:10;;;;;;;20.30;13.20;;;;;;;26.19;56.35;98484.39;513004;1089;103079;-42
2021/06/29 04:25:15;;;;;;;19.10;13.43;;;;;;;27.27;55.63;98481.28;512874;1089;103125;-46
2021/06/29 04:35:22;;;;;;;14.70;13.00;;;;;;;28.18;54.84;98465.19;512998;1089;103108;-42
2021/06/29 04:45:29;;;;;;;13.93;11.20;;;;;;;29.14;53.27;98464.78;512881;1088;103116;-43
2021/06/29 04:55:37;;;;;;;17.10;11.40;;;;;;;29.72;51.58;98468.33;513164;1088;103335;-45
2021/06/29 05:05:45;;;;;;;25.67;15.20;;;;;;;30.27;50.59;98465.44;512894;1088;103467;-43
2021/06/29 05:15:53;;;;;;;31.60;15.63;;;;;;;30.59;49.04;98469.50;512930;1089;103332;-45
2021/06/29 05:26:00;;;;;;;25.10;12.03;;;;;;;30.72;47.76;98481.80;512978;1088;103122;-44
2021/06/29 05:36:07;;;;;;;19.57;10.43;;;;;;;30.59;46.58;98474.95;512932;1089;103134;-43
2021/06/29 05:46:14;;;;;;;26.80;14.83;;;;;;;30.12;43.15;98473.39;513068;1089;103123;-44
2021/06/29 05:56:20;;;;;;;22.07;11.63;;;;;;;29.80;43.12;98470.03;513160;1088;103424;-44
2021/06/29 06:06:28;;;;;;;12.83;8.80;;;;;;;29.82;43.39;98469.70;512911;1088;103424;-45
2021/06/29 06:16:36;;;;;;;12.33;8.40;;;;;;;29.66;41.44;98469.77;512909;1090;103409;-46
2021/06/29 06:26:44;;;;;;;14.20;9.00;;;;;;;29.15;41.13;98461.70;513027;1088;103105;-43
2021/06/29 06:36:52;;;;;;;14.67;8.00;;;;;;;29.38;41.49;98461.80;512965;1088;103486;-46
2021/06/29 06:46:59;;;;;;;7.77;6.07;;;;;;;29.50;41.41;98453.50;513032;1089;103454;-44
2021/06/29 06:57:07;;;;;;;9.43;4.83;;;;;;;29.69;41.30;98421.94;512819;1088;103115;-44
2021/06/29 07:07:15;;;;;;;4.80;4.40;;;;;;;28.98;38.91;98418.55;512796;1089;103136;-44
2021/06/29 07:17:23;;;;;;;5.60;4.00;;;;;;;28.63;38.50;98432.13;512799;1089;103101;-45
2021/06/29 07:27:30;;;;;;;6.05;3.85;;;;;;;28.68;38.70;98435.36;513129;1089;103981;-42
2021/06/29 07:37:38;;;;;;;5.17;3.57;;;;;;;28.78;36.58;98423.13;512923;1089;103117;-43
2021/06/29 07:47:46;;;;;;;6.10;3.73;;;;;;;28.38;35.60;98426.08;512904;1088;103089;-45
2021/06/29 07:57:53;;;;;;;4.60;3.67;;;;;;;28.04;36.88;98430.27;512981;1088;103141;-43
2021/06/29 08:08:05;;;;;;;4.65;3.90;;;;;;;28.21;37.15;98440.80;512953;1088;103163;-43
2021/06/29 08:18:16;;;;;;;5.27;4.00;;;;;;;28.47;36.86;98443.02;512920;1089;103380;-43
2021/06/29 08:28:24;;;;;;;4.73;4.17;;;;;;;28.77;35.34;98442.53;512934;1089;103147;-44
2021/06/29 08:38:31;;;;;;;6.10;4.40;;;;;;;28.51;36.00;98438.45;512922;1088;103122;-43
2021/06/29 08:48:40;;;;;;;3.70;3.35;;;;;;;28.32;36.31;98431.00;512895;1088;103633;-42
2021/06/29 08:58:48;;;;;;;4.20;3.50;;;;;;;28.84;36.11;98442.69;513128;1088;103100;-43
2021/06/29 09:08:56;;;;;;;14.13;10.17;;;;;;;29.02;33.52;98436.52;513037;1088;103482;-43
2021/06/29 09:19:04;;;;;;;6.47;3.23;;;;;;;29.12;33.13;98420.80;513086;1089;103466;-43
2021/06/29 09:29:12;;;;;;;5.20;3.03;;;;;;;28.86;32.60;98407.77;513086;1089;103147;-42
2021/06/29 09:39:22;;;;;;;3.33;3.03;;;;;;;28.95;32.28;98400.20;512963;1088;103486;-46
2021/06/29 09:49:30;;;;;;;2.77;2.57;;;;;;;28.93;33.36;98399.78;512910;1089;103133;-44
2021/06/29 09:59:44;;;;;;;3.10;2.83;;;;;;;29.36;33.51;98387.05;512918;1089;103424;-44
2021/06/29 10:09:49;;;;;;;2.10;2.00;;;;;;;28.89;32.18;98374.42;512949;1089;103193;-43
2021/06/29 10:30:16;;;;;;;4.93;2.50;;;;;;;28.93;32.12;98367.91;513128;1088;103429;-42
2021/06/29 10:40:25;;;;;;;3.60;2.70;;;;;;;29.23;32.35;98356.44;512973;1089;103124;-43
2021/06/29 10:50:37;;;;;;;4.73;2.73;;;;;;;29.39;32.40;98361.81;512960;1088;103511;-44
2021/06/29 11:00:44;;;;;;;5.60;3.07;;;;;;;29.06;31.54;98365.03;513162;1088;103055;-42
2021/06/29 11:10:53;;;;;;;3.13;2.83;;;;;;;29.22;32.18;98350.20;512923;1089;103589;-42
2021/06/29 11:21:02;;;;;;;2.97;2.40;;;;;;;29.59;31.97;98344.31;512970;1088;103534;-43
2021/06/29 11:41:34;;;;;;;3.87;3.10;;;;;;;29.97;30.96;98310.68;513158;1090;103096;-43
2021/06/29 11:51:50;;;;;;;5.10;2.70;;;;;;;29.61;31.56;98290.25;513046;1089;103105;-43
2021/06/29 12:02:02;;;;;;;2.90;2.70;;;;;;;30.15;31.60;98270.09;512741;1089;104199;-43
2021/06/29 12:12:17;;;;;;;7.37;3.83;;;;;;;29.68;31.73;98241.31;513068;1088;103547;-43
2021/06/29 12:22:27;;;;;;;7.87;2.97;;;;;;;29.25;32.36;98213.34;512953;1089;103422;-43
2021/06/29 12:32:33;;;;;;;8.13;3.73;;;;;;;29.25;33.42;98216.05;512868;1089;103228;-43
2021/06/29 12:42:41;;;;;;;4.03;3.00;;;;;;;28.82;33.20;98206.30;513157;1089;103102;-42
2021/06/29 12:52:55;;;;;;;3.47;3.17;;;;;;;28.47;34.08;98186.59;513048;1088;103150;-43
2021/06/29 13:03:03;;;;;;;4.67;3.23;;;;;;;28.67;34.27;98190.88;513054;1089;103102;-43
2021/06/29 13:13:20;;;;;;;7.23;3.60;;;;;;;28.82;34.34;98181.03;512947;1088;103480;-44
2021/06/29 13:23:35;;;;;;;4.07;3.00;;;;;;;28.55;33.83;98175.47;512932;1088;103055;-42
2021/06/29 13:33:43;;;;;;;5.73;3.47;;;;;;;28.49;34.68;98160.60;512894;1088;103508;-44
2021/06/29 13:43:50;;;;;;;4.73;3.63;;;;;;;28.74;35.55;98171.95;513023;1089;103083;-44
2021/06/29 13:54:14;;;;;;;5.00;3.20;;;;;;;29.06;34.12;98147.27;513010;1088;103138;-43
2021/06/29 14:04:21;;;;;;;5.57;4.00;;;;;;;28.97;34.59;98136.63;513042;1088;103124;-45
2021/06/29 14:14:28;;;;;;;7.73;3.90;;;;;;;28.84;34.70;98119.65;512990;1088;103416;-43
2021/06/29 14:24:35;;;;;;;8.70;4.23;;;;;;;28.66;34.35;98116.64;512962;1088;103128;-43
2021/06/29 14:34:43;;;;;;;5.37;4.50;;;;;;;28.47;34.65;98102.28;513004;1088;103143;-43
2021/06/29 14:44:50;;;;;;;4.70;4.30;;;;;;;28.42;35.23;98085.11;513238;1089;103121;-43
2021/06/29 15:05:07;;;;;;;5.70;4.20;;;;;;;28.43;36.50;98086.69;513026;1088;103191;-43
2021/06/29 15:15:17;;;;;;;4.50;3.70;;;;;;;28.52;35.72;98083.73;512967;1089;103441;-43
2021/06/29 15:25:25;;;;;;;6.60;4.40;;;;;;;28.25;36.12;98060.30;513028;1090;103101;-42
2021/06/29 15:35:33;;;;;;;6.90;4.20;;;;;;;27.65;36.71;98057.12;512917;1088;103147;-43
2021/06/29 15:45:41;;;;;;;4.40;4.00;;;;;;;27.28;36.78;98034.97;513012;1089;103147;-42
2021/06/29 15:55:49;;;;;;;7.07;3.77;;;;;;;27.12;37.09;98021.41;512865;1088;103374;-43
2021/06/29 16:05:57;;;;;;;4.87;4.17;;;;;;;27.00;37.19;98008.76;512830;1089;103105;-44
2021/06/29 16:16:06;;;;;;;4.80;4.30;;;;;;;27.11;37.21;97990.78;512840;1089;103140;-41
2021/06/29 16:26:16;;;;;;;5.10;4.10;;;;;;;27.12;37.28;97996.99;513033;1089;103148;-43
2021/06/29 16:36:22;;;;;;;5.35;4.25;;;;;;;27.55;36.58;97987.06;513016;1088;103100;-41
2021/06/29 16:46:31;;;;;;;6.27;4.33;;;;;;;27.57;36.84;97987.48;512835;1089;104457;-43
2021/06/29 16:56:41;;;;;;;3.77;3.47;;;;;;;27.82;36.78;97989.58;513283;1089;103119;-43
2021/06/29 17:06:49;;;;;;;6.40;4.30;;;;;;;27.89;36.83;97977.27;513119;1090;104266;-44
2021/06/29 17:16:57;;;;;;;4.60;3.90;;;;;;;27.66;37.22;97991.58;513036;1090;103434;-44
2021/06/29 17:27:06;;;;;;;4.13;3.73;;;;;;;27.42;37.82;97991.81;513112;1088;103095;-44
2021/06/29 17:37:13;;;;;;;5.07;4.57;;;;;;;26.99;38.03;97990.91;513153;1088;103507;-44
2021/06/29 17:47:21;;;;;;;8.80;6.37;;;;;;;26.60;38.92;97989.94;512824;1088;103122;-43
2021/06/29 17:57:28;;;;;;;11.47;6.30;;;;;;;26.38;39.82;97985.13;512840;1090;103121;-44
2021/06/29 18:07:36;;;;;;;10.23;5.93;;;;;;;26.20;40.53;97974.58;513041;1089;103146;-43
2021/06/29 18:17:44;;;;;;;9.00;5.77;;;;;;;25.88;41.30;97984.58;513121;1088;103457;-43
2021/06/29 18:27:52;;;;;;;9.33;6.10;;;;;;;25.68;42.04;97972.81;512995;1089;103192;-44
2021/06/29 18:37:59;;;;;;;11.07;6.97;;;;;;;25.49;42.81;97971.83;512995;1088;103539;-43
2021/06/29 18:48:08;;;;;;;8.77;7.87;;;;;;;25.34;44.02;97966.02;513211;1089;103117;-42
2021/06/29 18:58:16;;;;;;;10.23;7.97;;;;;;;25.08;44.60;97966.42;512956;1090;103156;-42
2021/06/29 19:08:23;;;;;;;11.93;8.67;;;;;;;24.74;45.36;97964.94;513030;1088;103495;-43
2021/06/29 19:18:31;;;;;;;11.67;8.23;;;;;;;24.40;46.20;97962.69;512903;1089;103116;-41
2021/06/29 19:28:39;;;;;;;11.00;8.43;;;;;;;24.10;46.95;97960.11;512971;1088;103377;-43
2021/06/29 19:38:47;;;;;;;8.83;7.93;;;;;;;23.90;47.86;97963.67;512962;1088;103523;-42
2021/06/29 19:48:55;;;;;;;8.23;7.43;;;;;;;23.66;48.32;97958.98;512955;1089;103163;-43
2021/06/29 19:59:03;;;;;;;8.40;7.60;;;;;;;23.49;48.92;97940.99;512912;1088;103175;-42
2021/06/29 20:09:12;;;;;;;9.17;7.67;;;;;;;23.40;49.52;97937.56;513054;1089;103470;-42
2021/06/29 20:19:19;;;;;;;10.30;9.30;;;;;;;23.42;49.63;97931.83;512829;1089;103144;-42
2021/06/29 20:29:27;;;;;;;9.97;9.07;;;;;;;23.37;50.37;97930.13;512756;1088;103132;-41
2021/06/29 20:39:35;;;;;;;9.65;8.75;;;;;;;23.25;50.46;97908.50;512906;1089;103502;-43
2021/06/29 20:49:52;;;;;;;9.27;8.43;;;;;;;23.21;51.10;97900.29;512902;1088;103122;-44
2021/06/29 20:59:59;;;;;;;11.85;9.20;;;;;;;23.09;52.50;97886.73;512972;1089;103102;-42
2021/06/29 21:10:16;;;;;;;10.67;9.57;;;;;;;22.93;52.93;97873.04;512992;1088;103053;-43
2021/06/29 21:20:24;;;;;;;11.97;10.87;;;;;;;22.88;54.15;97859.77;512865;1088;103457;-44
2021/06/29 21:30:30;;;;;;;;;;;;;;;22.76;54.50;97840.02;512942;1088;103448;-42
2021/06/29 21:40:38;;;;;;;12.95;10.70;;;;;;;22.59;55.39;97847.09;513022;1088;103119;-40
2021/06/29 21:50:46;;;;;;;11.80;10.60;;;;;;;22.35;56.24;97831.55;513169;1089;103095;-43
2021/06/29 22:00:53;;;;;;;15.30;11.57;;;;;;;22.13;56.94;97809.50;513117;1088;103617;-44
2021/06/29 22:11:06;;;;;;;16.33;11.47;;;;;;;22.06;57.46;97799.25;512788;1088;103141;-44
2021/06/29 22:21:13;;;;;;;12.43;11.23;;;;;;;22.04;57.95;97798.78;513167;1089;103099;-42
2021/06/29 22:31:21;;;;;;;15.03;12.97;;;;;;;21.83;58.43;97781.75;513128;1088;103128;-43
2021/06/29 22:41:28;;;;;;;13.37;12.03;;;;;;;21.74;58.38;97777.17;512859;1087;103608;-44
2021/06/29 22:51:36;;;;;;;17.30;11.98;;;;;;;21.69;58.77;97749.67;512985;1089;103097;-41
2021/06/29 23:01:44;;;;;;;15.10;11.40;;;;;;;21.74;59.38;97746.79;512897;1088;103402;-42
2021/06/29 23:11:52;;;;;;;14.17;12.67;;;;;;;21.60;59.72;97743.55;513041;1089;103121;-44
2021/06/29 23:22:00;;;;;;;14.30;12.83;;;;;;;21.47;60.75;97747.22;512919;1088;103118;-43
2021/06/29 23:32:07;;;;;;;16.18;11.60;;;;;;;21.52;60.47;97734.38;513108;1088;103102;-42
2021/06/29 23:42:15;;;;;;;16.23;12.40;;;;;;;21.56;60.62;97743.41;513093;1089;103121;-43
2021/06/29 23:52:22;;;;;;;13.90;11.67;;;;;;;21.58;61.20;97719.66;512809;1090;104507;-42
